createdAt,value
2022-10-18T00:04:04.002Z,15.67
2022-10-18T00:09:05.519Z,15.60
2022-10-18T00:14:07.218Z,15.70
2022-10-18T00:19:08.703Z,15.64
2022-10-18T00:24:10.176Z,15.64
2022-10-18T00:29:14.690Z,15.74
2022-10-18T00:34:16.857Z,15.91
2022-10-18T00:39:20.920Z,16.03
2022-10-18T00:44:25.243Z,16.15
2022-10-18T00:49:40.882Z,16.23
2022-10-18T00:54:45.107Z,16.30
2022-10-18T00:59:47.454Z,16.37
2022-10-18T01:04:48.995Z,16.41
2022-10-18T01:10:00.362Z,16.49
2022-10-18T01:15:28.567Z,16.54
2022-10-18T01:20:45.249Z,16.57
2022-10-18T01:25:52.081Z,16.58
2022-10-18T01:31:03.634Z,16.52
2022-10-18T01:36:08.332Z,16.40
2022-10-18T01:41:15.756Z,16.43
2022-10-18T01:46:22.158Z,16.40
2022-10-18T01:51:29.200Z,16.31
2022-10-18T01:56:38.214Z,16.21
2022-10-18T02:02:01.140Z,16.19
2022-10-18T02:07:41.015Z,16.16
2022-10-18T02:12:44.909Z,16.09
2022-10-18T02:17:47.265Z,16.12
2022-10-18T02:22:50.654Z,16.06
2022-10-18T02:27:52.513Z,15.90
2022-10-18T02:33:04.052Z,15.85
2022-10-18T02:38:08.058Z,15.85
2022-10-18T02:43:09.519Z,15.84
2022-10-18T02:48:10.991Z,15.79
2022-10-18T02:53:12.428Z,15.69
2022-10-18T02:58:14.720Z,15.61
2022-10-18T03:03:16.170Z,15.50
2022-10-18T03:08:18.181Z,15.43
2022-10-18T03:13:19.696Z,15.28
2022-10-18T03:18:21.180Z,15.08
2022-10-18T03:23:22.625Z,15.01
2022-10-18T03:28:24.071Z,15.00
2022-10-18T03:33:25.599Z,14.97
2022-10-18T03:38:27.208Z,14.91
2022-10-18T03:43:28.644Z,14.90
2022-10-18T03:48:30.129Z,14.90
2022-10-18T03:53:31.588Z,14.90
2022-10-18T04:03:35.361Z,15.17
2022-10-18T04:08:36.792Z,15.25
2022-10-18T04:13:38.802Z,15.31
2022-10-18T04:18:40.251Z,15.24
2022-10-18T04:23:41.813Z,15.18
2022-10-18T04:28:44.152Z,15.23
2022-10-18T04:33:45.575Z,15.36
2022-10-18T04:38:46.995Z,15.48
2022-10-18T04:43:48.692Z,15.61
2022-10-18T04:48:50.091Z,15.72
2022-10-18T04:53:51.595Z,15.77
2022-10-18T04:58:53.026Z,15.73
2022-10-18T05:03:55.363Z,15.65
2022-10-18T05:08:57.003Z,15.57
2022-10-18T05:13:58.491Z,15.56
2022-10-18T05:18:59.887Z,15.55
2022-10-18T05:24:01.404Z,15.51
2022-10-18T05:29:03.818Z,15.54
2022-10-18T05:34:05.433Z,15.67
2022-10-18T05:39:06.901Z,15.80
2022-10-18T05:44:08.363Z,15.87
2022-10-18T05:49:12.623Z,15.96
2022-10-18T05:54:14.274Z,16.04
2022-10-18T05:59:15.796Z,16.06
2022-10-18T06:04:17.941Z,16.03
2022-10-18T06:09:19.443Z,16.02
2022-10-18T06:14:20.901Z,16.15
2022-10-18T06:19:23.640Z,16.25
2022-10-18T06:24:25.273Z,16.30
2022-10-18T06:29:26.917Z,16.34
2022-10-18T06:34:28.344Z,16.17
2022-10-18T06:39:29.895Z,16.16
2022-10-18T06:44:31.637Z,16.25
2022-10-18T06:49:33.087Z,16.40
2022-10-18T06:54:34.612Z,16.55
2022-10-18T06:59:36.089Z,16.57
2022-10-18T07:04:37.606Z,16.67
2022-10-18T07:09:39.163Z,16.75
2022-10-18T07:14:40.886Z,16.82
2022-10-18T07:19:42.434Z,16.87
2022-10-18T07:24:44.039Z,17.02
2022-10-18T07:29:45.515Z,17.09
2022-10-18T07:34:47.031Z,17.11
2022-10-18T07:39:48.472Z,17.07
2022-10-18T07:44:50.005Z,17.11
2022-10-18T07:49:51.664Z,17.28
2022-10-18T07:54:53.225Z,17.49
2022-10-18T07:59:57.027Z,17.61
2022-10-18T08:04:58.477Z,17.84
2022-10-18T08:09:59.963Z,18.70
2022-10-18T08:15:01.511Z,19.03
2022-10-18T08:20:12.449Z,18.85
2022-10-18T08:25:25.060Z,18.60
2022-10-18T08:30:26.572Z,18.91
2022-10-18T08:35:28.150Z,19.38
2022-10-18T08:40:30.988Z,19.44
2022-10-18T08:45:42.257Z,19.28
2022-10-18T08:50:44.223Z,19.22
2022-10-18T08:56:05.072Z,19.65
2022-10-18T09:01:31.482Z,21.21
2022-10-18T09:06:42.671Z,22.69
2022-10-18T09:12:05.767Z,24.24
2022-10-18T09:17:22.773Z,23.58
2022-10-18T09:22:53.099Z,22.75
2022-10-18T09:28:08.424Z,21.72
2022-10-18T09:33:35.667Z,21.17
2022-10-18T09:38:49.564Z,21.10
2022-10-18T09:44:15.566Z,21.15
2022-10-18T09:49:27.131Z,21.12
2022-10-18T09:54:36.634Z,20.93
2022-10-18T09:59:42.437Z,21.27
2022-10-18T10:04:44.144Z,21.71
2022-10-18T10:09:56.828Z,23.24
2022-10-18T10:15:20.984Z,23.81
2022-10-18T10:20:44.278Z,24.74
2022-10-18T10:25:55.288Z,26.12
2022-10-18T10:31:30.929Z,27.06
2022-10-18T10:36:33.594Z,27.48
2022-10-18T10:41:35.338Z,28.04
2022-10-18T10:46:36.955Z,26.61
2022-10-18T10:51:40.151Z,25.63
2022-10-18T10:57:22.577Z,25.99
2022-10-18T11:02:32.188Z,26.46
2022-10-18T11:07:40.954Z,27.20
2022-10-18T11:12:48.529Z,27.45
2022-10-18T11:18:08.206Z,25.73
2022-10-18T11:23:15.422Z,24.65
2022-10-18T11:28:38.143Z,23.90
2022-10-18T11:34:09.822Z,23.67
2022-10-18T11:39:26.633Z,23.88
2022-10-18T11:44:42.485Z,24.12
2022-10-18T11:49:50.062Z,24.37
2022-10-18T11:55:09.682Z,24.54
2022-10-18T12:00:29.120Z,24.68
2022-10-18T12:05:33.373Z,24.44
2022-10-18T12:10:59.950Z,24.36
2022-10-18T12:15:58.152Z,24.27
2022-10-18T12:21:01.781Z,24.27
2022-10-18T12:26:06.767Z,24.47
2022-10-18T12:31:23.354Z,24.60
2022-10-18T12:36:37.392Z,24.85
2022-10-18T12:41:38.987Z,24.94
2022-10-18T12:46:55.983Z,24.88
2022-10-18T12:52:07.541Z,24.84
2022-10-18T12:57:23.519Z,24.79
2022-10-18T13:02:28.191Z,24.78
2022-10-18T13:07:40.849Z,24.75
2022-10-18T13:12:45.052Z,24.72
2022-10-18T13:18:19.586Z,24.69
2022-10-18T13:23:53.977Z,24.58
2022-10-18T13:29:13.882Z,24.32
2022-10-18T13:34:24.500Z,24.13
2022-10-18T13:39:27.081Z,23.90
2022-10-18T13:44:37.706Z,23.69
2022-10-18T13:49:39.235Z,23.39
2022-10-18T13:54:55.696Z,23.34
2022-10-18T14:00:33.700Z,23.39
2022-10-18T14:05:56.968Z,23.45
2022-10-18T14:11:06.155Z,23.51
2022-10-18T14:16:32.600Z,23.44
2022-10-18T14:21:38.384Z,23.35
2022-10-18T14:31:54.417Z,23.21
2022-10-18T14:36:55.909Z,23.04
2022-10-18T14:41:58.313Z,22.94
2022-10-18T14:47:20.641Z,22.86
2022-10-18T14:52:35.721Z,22.81
2022-10-18T14:57:37.711Z,22.70
2022-10-18T15:02:39.680Z,22.55
2022-10-18T15:07:41.520Z,22.40
2022-10-18T15:13:08.042Z,22.27
2022-10-18T15:18:07.064Z,22.19
2022-10-18T15:23:27.002Z,22.14
2022-10-18T15:28:36.277Z,22.08
2022-10-18T15:33:37.911Z,22.05
2022-10-18T15:38:39.634Z,21.98
2022-10-18T15:43:41.144Z,21.85
2022-10-18T15:48:42.631Z,21.71
2022-10-18T15:53:50.485Z,21.61
2022-10-18T15:58:52.341Z,21.51
2022-10-18T16:08:56.493Z,21.32
2022-10-18T16:14:00.403Z,21.27
2022-10-18T16:19:02.636Z,21.16
2022-10-18T16:24:05.153Z,21.05
2022-10-18T16:29:07.643Z,20.90
2022-10-18T16:34:11.781Z,20.69
2022-10-18T16:39:17.724Z,20.55
2022-10-18T16:44:19.422Z,20.47
2022-10-18T16:49:24.089Z,20.41
2022-10-18T16:54:26.011Z,20.38
2022-10-18T16:59:30.153Z,20.32
2022-10-18T17:04:31.608Z,20.25
2022-10-18T17:09:34.897Z,20.23
2022-10-18T17:14:36.959Z,20.23
2022-10-18T17:19:38.428Z,20.20
2022-10-18T17:24:39.830Z,20.21
2022-10-18T17:29:41.252Z,20.20
2022-10-18T17:34:42.732Z,20.16
2022-10-18T17:39:44.189Z,20.10
2022-10-18T17:44:46.183Z,20.01
2022-10-18T17:49:47.836Z,19.97
2022-10-18T17:54:49.295Z,19.87
2022-10-18T17:59:50.726Z,19.71
2022-10-18T18:04:54.269Z,19.55
2022-10-18T18:09:56.579Z,19.46
2022-10-18T18:14:58.054Z,19.38
2022-10-18T18:19:59.563Z,19.34
2022-10-18T18:25:00.957Z,19.32
2022-10-18T18:30:02.428Z,19.27
2022-10-18T18:35:04.162Z,19.22
2022-10-18T18:40:06.168Z,19.21
2022-10-18T18:45:07.774Z,19.24
2022-10-18T18:50:09.419Z,19.26
2022-10-18T18:55:10.976Z,19.24
2022-10-18T19:00:13.353Z,19.18
2022-10-18T19:05:14.851Z,19.12
2022-10-18T19:10:16.322Z,19.01
2022-10-18T19:15:19.267Z,18.96
2022-10-18T19:20:20.838Z,18.91
2022-10-18T19:25:24.786Z,18.85
2022-10-18T19:30:28.413Z,18.79
2022-10-18T19:35:29.898Z,18.76
2022-10-18T19:40:31.311Z,18.74
2022-10-18T19:45:32.750Z,18.68
2022-10-18T19:50:35.032Z,18.59
2022-10-18T19:55:36.555Z,18.50
2022-10-18T20:00:38.140Z,18.47
2022-10-18T20:05:39.572Z,18.43
2022-10-18T20:10:41.044Z,18.38
2022-10-18T20:15:42.707Z,18.33
2022-10-18T20:20:47.328Z,18.29
2022-10-18T20:26:00.507Z,18.19
2022-10-18T20:31:07.205Z,18.08
2022-10-18T20:36:11.823Z,17.96
2022-10-18T20:41:19.439Z,17.85
2022-10-18T20:46:22.172Z,17.72
2022-10-18T20:51:23.653Z,17.61
2022-10-18T20:56:28.724Z,17.48
2022-10-18T21:01:31.856Z,17.35
2022-10-18T21:06:36.179Z,17.22
2022-10-18T21:11:40.236Z,17.13
2022-10-18T21:16:43.344Z,17.04
2022-10-18T21:21:47.041Z,16.97
2022-10-18T21:26:49.061Z,16.95
2022-10-18T21:31:55.137Z,16.96
2022-10-18T21:36:56.543Z,16.98
2022-10-18T21:41:58.002Z,16.94
2022-10-18T21:46:59.423Z,16.86
2022-10-18T21:52:03.713Z,16.80
2022-10-18T21:57:05.165Z,16.75
2022-10-18T22:02:06.634Z,16.71
2022-10-18T22:07:08.139Z,16.60
2022-10-18T22:12:10.932Z,16.52
2022-10-18T22:17:12.532Z,16.55
2022-10-18T22:22:13.997Z,16.65
2022-10-18T22:27:15.435Z,16.68
2022-10-18T22:32:16.840Z,16.65
2022-10-18T22:37:18.274Z,16.62
2022-10-18T22:42:19.671Z,16.51
2022-10-18T22:47:21.188Z,16.40
2022-10-18T22:52:22.648Z,16.31
2022-10-18T22:57:24.062Z,16.23
2022-10-18T23:02:25.491Z,16.17
2022-10-18T23:07:26.898Z,16.10
2022-10-18T23:12:28.317Z,16.05
2022-10-18T23:17:29.890Z,16.02
2022-10-18T23:22:31.798Z,15.97
2022-10-18T23:27:33.649Z,15.86
2022-10-18T23:32:35.929Z,15.72
2022-10-18T23:37:37.773Z,15.64
2022-10-18T23:42:39.519Z,15.68
2022-10-18T23:47:40.953Z,15.62
2022-10-18T23:52:42.396Z,15.51
2022-10-18T23:57:43.860Z,15.46
